Aviation Digital Data Service (ADDS)

Output produced by METARs form (1124 UTC 19 February 2019)
found at http://www.aviationweather.gov/metar/data/
 
Forecast for: KBTV (BURLINGTON , VT, US)
Text: KBTV 190536Z 1906/2006 35007KT P6SM SCT040
Forecast period: 0600 to 1430 UTC 19 February 2019
Forecast type: FROM: standard forecast or significant change
Winds: from the N (350 degrees) at 8 MPH (7 knots; 3.6 m/s)
Visibility: 6 or more miles 10+ km)
Ceiling: at least 12,000 feet AGL
Clouds: scattered clouds at 4000 feet AGL
Weather: no significant weather forecast for this period
Text: FM191430 32009KT P6SM FEW250
Forecast period: 1430 UTC 19 February 2019 to 0100 UTC 20 February 2019
Forecast type: FROM: standard forecast or significant change
Winds: from the NW (320 degrees) at 10 MPH (9 knots; 4.6 m/s)
Visibility: 6 or more miles 10+ km)
Ceiling: at least 12,000 feet AGL
Clouds: few clouds at 25000 feet AGL
Weather: no significant weather forecast for this period
Text: FM200100 VRB04KT P6SM SKC
Forecast period: 0100 to 0600 UTC 20 February 2019
Forecast type: FROM: standard forecast or significant change
Winds: variable direction winds at 5 MPH (4 knots; 2.1 m/s)
Visibility: 6 or more miles 10+ km)
Clouds: clear skies
Weather: no significant weather forecast for this period